Time;durP1;ratioP1;P1;durP2;ratioP2;P2;SDS_P1;SDS_P2;PMS_P1;PMS_P2;Temp;Humidity;BMP_temperature;BMP_pressure;BME280_temperature;BME280_humidity;BME280_pressure;Samples;Min_cycle;Max_cycle;Signal;HPM_P1;HPM_P2
2022/12/15 00:39:04;;;;;;;5.7;5.5;;;;;;;-5.1;100.0;100430;;;;
2022/12/15 00:40:03;;;;;;;5.7;5.5;;;;;;;-5.2;100.0;100440;;;;
2022/12/15 00:41:00;;;;;;;5.7;5.5;;;;;;;-5.2;100.0;100440;;;;
2022/12/15 00:42:00;;;;;;;5.7;5.5;;;;;;;-5.3;100.0;100440;;;;
2022/12/15 00:43:00;;;;;;;5.7;5.5;;;;;;;-5.3;100.0;100440;;;;
2022/12/15 00:44:00;;;;;;;5.7;5.5;;;;;;;-5.3;100.0;100440;;;;
2022/12/15 00:45:00;;;;;;;5.7;5.5;;;;;;;-5.3;100.0;100440;;;;
2022/12/15 00:47:00;;;;;;;5.7;5.5;;;;;;;-5.3;100.0;100440;;;;
2022/12/15 00:48:00;;;;;;;5.7;5.5;;;;;;;-5.4;100.0;100450;;;;
2022/12/15 00:49:00;;;;;;;5.7;5.5;;;;;;;-5.4;100.0;100450;;;;
2022/12/15 00:51:00;;;;;;;5.7;5.5;;;;;;;-5.4;100.0;100450;;;;
2022/12/15 01:21:01;;;;;;;6.0;5.8;;;;;;;-5.4;100.0;100450;;;;
2022/12/15 01:22:00;;;;;;;6.0;5.8;;;;;;;-5.4;100.0;100450;;;;
2022/12/15 01:23:00;;;;;;;6.0;5.8;;;;;;;-5.4;100.0;100450;;;;
2022/12/15 01:24:00;;;;;;;6.0;5.8;;;;;;;-5.5;100.0;100460;;;;
2022/12/15 01:25:00;;;;;;;6.0;5.8;;;;;;;-5.5;100.0;100460;;;;
2022/12/15 01:26:01;;;;;;;6.0;5.8;;;;;;;-5.6;100.0;100460;;;;
2022/12/15 01:27:00;;;;;;;6.0;5.8;;;;;;;-5.6;100.0;100460;;;;
2022/12/15 01:28:00;;;;;;;6.0;5.8;;;;;;;-5.6;100.0;100460;;;;
2022/12/15 01:29:00;;;;;;;6.0;5.8;;;;;;;-5.6;100.0;100460;;;;
2022/12/15 01:30:00;;;;;;;6.0;5.8;;;;;;;-5.6;100.0;100460;;;;
2022/12/15 01:31:00;;;;;;;6.0;5.8;;;;;;;-5.6;100.0;100460;;;;
2022/12/15 01:32:00;;;;;;;6.0;5.8;;;;;;;-5.6;100.0;100470;;;;
2022/12/15 01:33:00;;;;;;;6.0;5.8;;;;;;;-5.6;100.0;100470;;;;
2022/12/15 01:34:00;;;;;;;6.0;5.8;;;;;;;-5.5;100.0;100470;;;;
2022/12/15 01:35:00;;;;;;;6.0;5.8;;;;;;;-5.5;100.0;100470;;;;
2022/12/15 01:36:00;;;;;;;6.0;5.8;;;;;;;-5.5;100.0;100480;;;;
2022/12/15 01:37:00;;;;;;;6.0;5.8;;;;;;;-5.5;100.0;100480;;;;
2022/12/15 01:38:00;;;;;;;6.5;6.3;;;;;;;-5.6;100.0;100480;;;;
2022/12/15 01:39:00;;;;;;;6.5;6.3;;;;;;;-5.6;100.0;100480;;;;
2022/12/15 01:41:02;;;;;;;6.5;6.3;;;;;;;-5.6;100.0;100480;;;;
2022/12/15 01:42:00;;;;;;;6.5;6.3;;;;;;;-5.6;100.0;100480;;;;
2022/12/15 01:43:00;;;;;;;6.5;6.3;;;;;;;-5.6;100.0;100480;;;;
2022/12/15 01:44:10;;;;;;;6.5;6.3;;;;;;;-5.7;100.0;100480;;;;
2022/12/15 01:45:10;;;;;;;6.5;6.3;;;;;;;-5.7;100.0;100480;;;;
2022/12/15 01:46:02;;;;;;;6.5;6.3;;;;;;;-5.6;100.0;100480;;;;
2022/12/15 01:47:00;;;;;;;6.5;6.3;;;;;;;-5.6;100.0;100480;;;;
2022/12/15 01:48:03;;;;;;;6.5;6.3;;;;;;;-5.6;100.0;100480;;;;
2022/12/15 01:49:10;;;;;;;6.5;6.3;;;;;;;-5.6;100.0;100480;;;;
2022/12/15 01:50:00;;;;;;;6.5;6.3;;;;;;;-5.6;100.0;100470;;;;
2022/12/15 01:51:03;;;;;;;6.5;6.3;;;;;;;-5.6;100.0;100470;;;;
2022/12/15 01:52:03;;;;;;;6.5;6.3;;;;;;;-5.6;100.0;100470;;;;
2022/12/15 01:53:01;;;;;;;6.5;6.3;;;;;;;-5.6;100.0;100470;;;;
2022/12/15 01:54:03;;;;;;;6.5;6.3;;;;;;;-5.7;100.0;100470;;;;
2022/12/15 01:55:00;;;;;;;6.5;6.3;;;;;;;-5.7;100.0;100470;;;;
2022/12/15 01:56:02;;;;;;;6.5;6.3;;;;;;;-5.7;100.0;100470;;;;
2022/12/15 01:57:03;;;;;;;6.5;6.3;;;;;;;-5.7;100.0;100470;;;;
2022/12/15 01:58:02;;;;;;;6.8;6.6;;;;;;;-5.6;100.0;100470;;;;
2022/12/15 01:59:01;;;;;;;6.8;6.6;;;;;;;-5.6;100.0;100470;;;;
2022/12/15 02:00:00;;;;;;;6.8;6.6;;;;;;;-5.5;100.0;100470;;;;
2022/12/15 02:01:01;;;;;;;6.8;6.6;;;;;;;-5.5;100.0;100470;;;;
2022/12/15 02:02:01;;;;;;;6.8;6.6;;;;;;;-5.7;100.0;100480;;;;
2022/12/15 02:03:01;;;;;;;6.8;6.6;;;;;;;-5.7;100.0;100480;;;;
2022/12/15 02:04:00;;;;;;;6.8;6.6;;;;;;;-5.8;100.0;100480;;;;
2022/12/15 02:05:01;;;;;;;6.8;6.6;;;;;;;-5.8;100.0;100480;;;;
2022/12/15 02:06:00;;;;;;;6.8;6.6;;;;;;;-5.8;100.0;100490;;;;
2022/12/15 02:07:00;;;;;;;6.8;6.6;;;;;;;-5.8;100.0;100490;;;;
2022/12/15 02:08:00;;;;;;;6.8;6.6;;;;;;;-5.8;100.0;100490;;;;
2022/12/15 02:09:01;;;;;;;6.8;6.6;;;;;;;-5.8;100.0;100490;;;;
2022/12/15 02:10:01;;;;;;;6.8;6.6;;;;;;;-5.6;100.0;100490;;;;
2022/12/15 02:11:10;;;;;;;6.8;6.6;;;;;;;-5.6;100.0;100490;;;;
2022/12/15 02:12:09;;;;;;;6.8;6.6;;;;;;;-5.7;100.0;100490;;;;
2022/12/15 02:13:03;;;;;;;6.8;6.6;;;;;;;-5.7;100.0;100490;;;;
2022/12/15 02:14:02;;;;;;;6.8;6.6;;;;;;;-5.6;100.0;100500;;;;
2022/12/15 02:15:03;;;;;;;6.8;6.6;;;;;;;-5.6;100.0;100500;;;;
2022/12/15 02:16:05;;;;;;;6.8;6.6;;;;;;;-5.6;100.0;100500;;;;
2022/12/15 02:17:10;;;;;;;7.3;7.0;;;;;;;-5.6;100.0;100500;;;;
2022/12/15 02:18:08;;;;;;;7.3;7.0;;;;;;;-5.7;100.0;100500;;;;
2022/12/15 02:19:10;;;;;;;7.3;7.0;;;;;;;-5.7;100.0;100500;;;;
2022/12/15 02:20:10;;;;;;;7.3;7.0;;;;;;;-5.7;100.0;100510;;;;
2022/12/15 02:21:00;;;;;;;7.3;7.0;;;;;;;-5.7;100.0;100510;;;;
2022/12/15 02:22:10;;;;;;;7.3;7.0;;;;;;;-5.7;100.0;100510;;;;
2022/12/15 02:23:10;;;;;;;7.3;7.0;;;;;;;-5.7;100.0;100510;;;;
2022/12/15 02:24:09;;;;;;;7.3;7.0;;;;;;;-5.7;100.0;100520;;;;
2022/12/15 02:25:10;;;;;;;7.3;7.0;;;;;;;-5.7;100.0;100520;;;;
2022/12/15 02:26:10;;;;;;;7.3;7.0;;;;;;;-5.7;100.0;100510;;;;
2022/12/15 02:27:00;;;;;;;7.3;7.0;;;;;;;-5.7;100.0;100510;;;;
2022/12/15 02:28:10;;;;;;;7.3;7.0;;;;;;;-5.8;100.0;100520;;;;
2022/12/15 02:29:12;;;;;;;7.3;7.0;;;;;;;-5.8;100.0;100520;;;;
2022/12/15 02:30:10;;;;;;;7.3;7.0;;;;;;;-5.8;100.0;100520;;;;
2022/12/15 02:32:07;;;;;;;7.3;7.0;;;;;;;-5.7;100.0;100520;;;;
2022/12/15 02:33:00;;;;;;;7.3;7.0;;;;;;;-5.7;100.0;100520;;;;
2022/12/15 02:34:04;;;;;;;7.3;7.0;;;;;;;-5.8;100.0;100520;;;;
2022/12/15 02:35:04;;;;;;;7.3;7.0;;;;;;;-5.8;100.0;100520;;;;
2022/12/15 02:36:04;;;;;;;7.3;7.0;;;;;;;-5.8;100.0;100520;;;;
2022/12/15 02:37:10;;;;;;;6.6;6.4;;;;;;;-5.8;100.0;100520;;;;
2022/12/15 02:38:00;;;;;;;6.6;6.4;;;;;;;-5.8;100.0;100510;;;;
2022/12/15 02:39:00;;;;;;;6.6;6.4;;;;;;;-5.8;100.0;100510;;;;
2022/12/15 02:40:00;;;;;;;6.6;6.4;;;;;;;-5.8;100.0;100510;;;;
2022/12/15 02:41:01;;;;;;;6.6;6.4;;;;;;;-5.8;100.0;100510;;;;
2022/12/15 02:42:00;;;;;;;6.6;6.4;;;;;;;-5.8;100.0;100510;;;;
2022/12/15 02:43:02;;;;;;;6.6;6.4;;;;;;;-5.8;100.0;100510;;;;
2022/12/15 02:44:01;;;;;;;6.6;6.4;;;;;;;-5.8;100.0;100510;;;;
2022/12/15 02:45:04;;;;;;;6.6;6.4;;;;;;;-5.8;100.0;100510;;;;
2022/12/15 02:46:10;;;;;;;6.6;6.4;;;;;;;-5.8;100.0;100510;;;;
2022/12/15 02:47:06;;;;;;;6.6;6.4;;;;;;;-5.8;100.0;100510;;;;
2022/12/15 02:48:09;;;;;;;6.6;6.4;;;;;;;-5.8;100.0;100510;;;;
2022/12/15 02:49:00;;;;;;;6.6;6.4;;;;;;;-5.8;100.0;100510;;;;
2022/12/15 02:50:01;;;;;;;6.6;6.4;;;;;;;-5.9;100.0;100510;;;;
2022/12/15 02:51:00;;;;;;;6.6;6.4;;;;;;;-5.9;100.0;100510;;;;
2022/12/15 02:52:10;;;;;;;6.6;6.4;;;;;;;-6.0;100.0;100510;;;;
2022/12/15 02:53:10;;;;;;;6.6;6.4;;;;;;;-6.0;100.0;100510;;;;
2022/12/15 02:54:10;;;;;;;6.6;6.4;;;;;;;-6.0;100.0;100510;;;;
2022/12/15 02:55:10;;;;;;;6.6;6.4;;;;;;;-6.0;100.0;100510;;;;
2022/12/15 02:56:03;;;;;;;6.6;6.4;;;;;;;-6.0;100.0;100520;;;;
2022/12/15 02:57:04;;;;;;;6.6;6.4;;;;;;;-6.0;100.0;100520;;;;
2022/12/15 02:58:05;;;;;;;6.6;6.4;;;;;;;-5.9;100.0;100530;;;;
2022/12/15 02:59:03;;;;;;;6.6;6.4;;;;;;;-5.9;100.0;100530;;;;
2022/12/15 03:00:01;;;;;;;6.6;6.4;;;;;;;-5.9;100.0;100530;;;;
2022/12/15 03:01:03;;;;;;;6.6;6.4;;;;;;;-5.9;100.0;100530;;;;
2022/12/15 03:02:04;;;;;;;6.6;6.4;;;;;;;-5.8;100.0;100530;;;;
2022/12/15 03:03:00;;;;;;;6.6;6.4;;;;;;;-5.8;100.0;100530;;;;
2022/12/15 03:04:01;;;;;;;6.6;6.4;;;;;;;-5.9;100.0;100520;;;;
2022/12/15 03:05:00;;;;;;;6.6;6.4;;;;;;;-5.9;100.0;100520;;;;
2022/12/15 03:06:01;;;;;;;6.6;6.4;;;;;;;-6.0;100.0;100520;;;;
2022/12/15 03:07:02;;;;;;;6.6;6.4;;;;;;;-6.0;100.0;100520;;;;
2022/12/15 03:08:00;;;;;;;6.6;6.4;;;;;;;-6.1;100.0;100520;;;;
2022/12/15 03:09:00;;;;;;;6.6;6.4;;;;;;;-6.1;100.0;100520;;;;
2022/12/15 03:10:02;;;;;;;6.6;6.4;;;;;;;-6.0;100.0;100520;;;;
2022/12/15 03:11:00;;;;;;;6.6;6.4;;;;;;;-6.0;100.0;100520;;;;
2022/12/15 03:12:00;;;;;;;6.6;6.4;;;;;;;-6.0;100.0;100520;;;;
2022/12/15 03:13:00;;;;;;;6.6;6.4;;;;;;;-6.0;100.0;100520;;;;
2022/12/15 03:14:00;;;;;;;6.6;6.4;;;;;;;-6.1;100.0;100510;;;;
2022/12/15 03:15:00;;;;;;;6.6;6.4;;;;;;;-6.1;100.0;100510;;;;
2022/12/15 03:16:00;;;;;;;6.6;6.4;;;;;;;-6.1;100.0;100520;;;;
2022/12/15 03:17:00;;;;;;;6.3;6.1;;;;;;;-6.1;100.0;100520;;;;
2022/12/15 03:18:00;;;;;;;6.3;6.1;;;;;;;-6.1;100.0;100520;;;;
2022/12/15 03:19:00;;;;;;;6.3;6.1;;;;;;;-6.1;100.0;100520;;;;
2022/12/15 03:20:00;;;;;;;6.3;6.1;;;;;;;-6.1;100.0;100520;;;;
2022/12/15 03:21:00;;;;;;;6.3;6.1;;;;;;;-6.1;100.0;100520;;;;
2022/12/15 03:22:00;;;;;;;6.3;6.1;;;;;;;-6.1;100.0;100530;;;;
2022/12/15 03:23:00;;;;;;;6.3;6.1;;;;;;;-6.1;100.0;100530;;;;
2022/12/15 03:24:00;;;;;;;6.3;6.1;;;;;;;-6.0;100.0;100520;;;;
2022/12/15 03:25:00;;;;;;;6.3;6.1;;;;;;;-6.0;100.0;100520;;;;
2022/12/15 03:26:00;;;;;;;6.3;6.1;;;;;;;-6.1;100.0;100530;;;;
2022/12/15 03:27:00;;;;;;;6.3;6.1;;;;;;;-6.1;100.0;100530;;;;
2022/12/15 03:28:00;;;;;;;6.3;6.1;;;;;;;-6.1;100.0;100530;;;;
2022/12/15 03:29:00;;;;;;;6.3;6.1;;;;;;;-6.1;100.0;100530;;;;
2022/12/15 03:30:00;;;;;;;6.3;6.1;;;;;;;-6.1;100.0;100540;;;;
2022/12/15 03:31:00;;;;;;;6.3;6.1;;;;;;;-6.1;100.0;100540;;;;
2022/12/15 03:32:00;;;;;;;6.3;6.1;;;;;;;-6.0;100.0;100540;;;;
2022/12/15 03:33:00;;;;;;;6.3;6.1;;;;;;;-6.0;100.0;100540;;;;
2022/12/15 03:34:00;;;;;;;6.3;6.1;;;;;;;-6.1;100.0;100540;;;;
2022/12/15 03:35:00;;;;;;;6.3;6.1;;;;;;;-6.1;100.0;100540;;;;
2022/12/15 03:36:00;;;;;;;6.3;6.1;;;;;;;-6.1;100.0;100540;;;;
2022/12/15 03:37:00;;;;;;;6.2;6.0;;;;;;;-6.1;100.0;100540;;;;
2022/12/15 03:38:00;;;;;;;6.2;6.0;;;;;;;-6.1;100.0;100540;;;;
2022/12/15 03:39:00;;;;;;;6.2;6.0;;;;;;;-6.1;100.0;100540;;;;
2022/12/15 03:40:00;;;;;;;6.2;6.0;;;;;;;-6.1;100.0;100530;;;;
2022/12/15 03:41:00;;;;;;;6.2;6.0;;;;;;;-6.1;100.0;100530;;;;
2022/12/15 03:42:00;;;;;;;6.2;6.0;;;;;;;-6.1;100.0;100530;;;;
2022/12/15 03:43:00;;;;;;;6.2;6.0;;;;;;;-6.1;100.0;100530;;;;
2022/12/15 03:44:00;;;;;;;6.2;6.0;;;;;;;-6.0;100.0;100540;;;;
2022/12/15 03:45:00;;;;;;;6.2;6.0;;;;;;;-6.0;100.0;100540;;;;
2022/12/15 03:46:00;;;;;;;6.2;6.0;;;;;;;-6.0;100.0;100530;;;;
2022/12/15 03:47:04;;;;;;;6.2;6.0;;;;;;;-6.0;100.0;100530;;;;
2022/12/15 03:48:00;;;;;;;6.2;6.0;;;;;;;-6.1;100.0;100540;;;;
2022/12/15 03:49:00;;;;;;;6.2;6.0;;;;;;;-6.1;100.0;100540;;;;
2022/12/15 03:50:00;;;;;;;6.2;6.0;;;;;;;-6.0;100.0;100550;;;;
2022/12/15 03:51:00;;;;;;;6.2;6.0;;;;;;;-6.0;100.0;100550;;;;
2022/12/15 03:52:00;;;;;;;6.2;6.0;;;;;;;-6.2;100.0;100560;;;;
2022/12/15 03:53:01;;;;;;;6.2;6.0;;;;;;;-6.2;100.0;100560;;;;
2022/12/15 03:54:00;;;;;;;6.2;6.0;;;;;;;-6.2;100.0;100560;;;;
2022/12/15 03:55:00;;;;;;;6.2;6.0;;;;;;;-6.2;100.0;100560;;;;
2022/12/15 03:56:00;;;;;;;6.2;6.0;;;;;;;-6.2;100.0;100560;;;;
2022/12/15 03:57:00;;;;;;;6.2;6.0;;;;;;;-6.2;100.0;100560;;;;
2022/12/15 03:58:00;;;;;;;6.2;6.0;;;;;;;-6.1;100.0;100550;;;;
2022/12/15 03:59:00;;;;;;;6.2;6.0;;;;;;;-6.1;100.0;100550;;;;
2022/12/15 04:00:00;;;;;;;6.2;6.0;;;;;;;-6.0;100.0;100560;;;;
2022/12/15 04:01:08;;;;;;;6.2;6.0;;;;;;;-6.0;100.0;100560;;;;
2022/12/15 04:02:00;;;;;;;6.2;6.0;;;;;;;-6.1;100.0;100550;;;;
2022/12/15 04:03:00;;;;;;;6.2;6.0;;;;;;;-6.1;100.0;100550;;;;
2022/12/15 04:04:01;;;;;;;6.2;6.0;;;;;;;-6.1;100.0;100550;;;;
2022/12/15 04:05:00;;;;;;;6.2;6.0;;;;;;;-6.1;100.0;100550;;;;
2022/12/15 04:06:00;;;;;;;6.2;6.0;;;;;;;-6.1;100.0;100550;;;;
2022/12/15 04:07:00;;;;;;;6.2;6.0;;;;;;;-6.1;100.0;100550;;;;
2022/12/15 04:08:00;;;;;;;6.2;6.0;;;;;;;-6.2;100.0;100560;;;;
2022/12/15 04:09:00;;;;;;;6.2;6.0;;;;;;;-6.2;100.0;100560;;;;
2022/12/15 04:10:00;;;;;;;6.2;6.0;;;;;;;-6.2;100.0;100560;;;;
2022/12/15 04:11:00;;;;;;;6.2;6.0;;;;;;;-6.2;100.0;100560;;;;
2022/12/15 04:12:02;;;;;;;6.2;6.0;;;;;;;-6.1;100.0;100550;;;;
2022/12/15 04:13:01;;;;;;;6.2;6.0;;;;;;;-6.1;100.0;100550;;;;
2022/12/15 04:14:00;;;;;;;6.2;6.0;;;;;;;-6.1;100.0;100550;;;;
2022/12/15 04:15:00;;;;;;;6.2;6.0;;;;;;;-6.1;100.0;100550;;;;
2022/12/15 04:16:00;;;;;;;6.2;6.0;;;;;;;-6.2;100.0;100550;;;;
2022/12/15 04:17:00;;;;;;;6.4;6.2;;;;;;;-6.2;100.0;100550;;;;
2022/12/15 04:18:01;;;;;;;6.4;6.2;;;;;;;-6.1;100.0;100540;;;;
2022/12/15 04:21:00;;;;;;;6.4;6.2;;;;;;;-6.1;100.0;100540;;;;
2022/12/15 04:22:02;;;;;;;6.4;6.2;;;;;;;-6.1;100.0;100540;;;;
2022/12/15 04:23:00;;;;;;;6.4;6.2;;;;;;;-6.1;100.0;100540;;;;
2022/12/15 05:32:00;;;;;;;6.6;6.4;;;;;;;-6.4;100.0;100580;;;;
2022/12/15 05:33:04;;;;;;;6.6;6.4;;;;;;;-6.4;100.0;100580;;;;
2022/12/15 05:34:05;;;;;;;6.6;6.4;;;;;;;-6.4;100.0;100580;;;;
2022/12/15 05:35:00;;;;;;;6.6;6.4;;;;;;;-6.4;100.0;100580;;;;
2022/12/15 05:36:00;;;;;;;6.7;6.5;;;;;;;-6.4;100.0;100590;;;;
2022/12/15 05:37:01;;;;;;;6.7;6.5;;;;;;;-6.4;100.0;100590;;;;
2022/12/15 05:38:00;;;;;;;6.7;6.5;;;;;;;-6.3;100.0;100590;;;;
2022/12/15 05:39:00;;;;;;;6.7;6.5;;;;;;;-6.3;100.0;100590;;;;
2022/12/15 05:40:00;;;;;;;6.7;6.5;;;;;;;-6.4;100.0;100600;;;;
2022/12/15 05:41:00;;;;;;;6.7;6.5;;;;;;;-6.4;100.0;100600;;;;
2022/12/15 05:42:00;;;;;;;6.7;6.5;;;;;;;-6.4;100.0;100600;;;;
2022/12/15 05:43:00;;;;;;;6.7;6.5;;;;;;;-6.4;100.0;100600;;;;
2022/12/15 05:44:00;;;;;;;6.7;6.5;;;;;;;-6.4;100.0;100600;;;;
2022/12/15 05:45:00;;;;;;;6.7;6.5;;;;;;;-6.4;100.0;100600;;;;
2022/12/15 05:46:02;;;;;;;6.7;6.5;;;;;;;-6.3;100.0;100590;;;;
2022/12/15 05:47:00;;;;;;;6.7;6.5;;;;;;;-6.3;100.0;100590;;;;
2022/12/15 05:48:00;;;;;;;6.7;6.5;;;;;;;-6.4;100.0;100590;;;;
2022/12/15 05:49:02;;;;;;;6.7;6.5;;;;;;;-6.4;100.0;100590;;;;
2022/12/15 05:50:00;;;;;;;6.7;6.5;;;;;;;-6.4;100.0;100590;;;;
2022/12/15 05:51:02;;;;;;;6.7;6.5;;;;;;;-6.4;100.0;100590;;;;
2022/12/15 05:52:00;;;;;;;6.7;6.5;;;;;;;-6.4;100.0;100600;;;;
2022/12/15 05:53:00;;;;;;;6.7;6.5;;;;;;;-6.4;100.0;100600;;;;
2022/12/15 05:54:00;;;;;;;6.7;6.5;;;;;;;-6.3;100.0;100590;;;;
2022/12/15 05:55:00;;;;;;;6.7;6.5;;;;;;;-6.3;100.0;100590;;;;
2022/12/15 05:56:01;;;;;;;6.8;6.6;;;;;;;-6.4;100.0;100600;;;;
2022/12/15 05:57:00;;;;;;;6.8;6.6;;;;;;;-6.4;100.0;100600;;;;
2022/12/15 05:58:00;;;;;;;6.8;6.6;;;;;;;-6.4;100.0;100600;;;;
2022/12/15 05:59:00;;;;;;;6.8;6.6;;;;;;;-6.4;100.0;100600;;;;
2022/12/15 06:00:00;;;;;;;6.8;6.6;;;;;;;-6.4;100.0;100600;;;;
2022/12/15 06:01:02;;;;;;;6.8;6.6;;;;;;;-6.4;100.0;100600;;;;
2022/12/15 06:02:00;;;;;;;6.8;6.6;;;;;;;-6.5;100.0;100600;;;;
2022/12/15 06:03:01;;;;;;;6.8;6.6;;;;;;;-6.5;100.0;100600;;;;
2022/12/15 06:04:00;;;;;;;6.8;6.6;;;;;;;-6.4;100.0;100600;;;;
2022/12/15 06:05:00;;;;;;;6.8;6.6;;;;;;;-6.4;100.0;100600;;;;
2022/12/15 06:06:01;;;;;;;6.8;6.6;;;;;;;-6.4;100.0;100600;;;;
2022/12/15 06:07:00;;;;;;;6.8;6.6;;;;;;;-6.4;100.0;100600;;;;
2022/12/15 06:08:00;;;;;;;6.8;6.6;;;;;;;-6.5;100.0;100600;;;;
2022/12/15 06:09:00;;;;;;;6.8;6.6;;;;;;;-6.5;100.0;100600;;;;
2022/12/15 06:10:00;;;;;;;6.8;6.6;;;;;;;-6.3;100.0;100610;;;;
2022/12/15 06:11:00;;;;;;;6.8;6.6;;;;;;;-6.3;100.0;100610;;;;
2022/12/15 06:12:00;;;;;;;6.8;6.6;;;;;;;-6.4;100.0;100620;;;;
2022/12/15 06:13:00;;;;;;;6.8;6.6;;;;;;;-6.4;100.0;100620;;;;
2022/12/15 06:14:00;;;;;;;6.8;6.6;;;;;;;-6.5;100.0;100610;;;;
2022/12/15 06:15:00;;;;;;;6.8;6.6;;;;;;;-6.5;100.0;100610;;;;
2022/12/15 06:16:01;;;;;;;7.0;6.8;;;;;;;-6.4;100.0;100610;;;;
2022/12/15 06:17:00;;;;;;;7.0;6.8;;;;;;;-6.4;100.0;100610;;;;
2022/12/15 06:18:00;;;;;;;7.0;6.8;;;;;;;-6.4;100.0;100610;;;;
2022/12/15 06:19:01;;;;;;;7.0;6.8;;;;;;;-6.5;100.0;100620;;;;
2022/12/15 06:20:00;;;;;;;7.0;6.8;;;;;;;-6.5;100.0;100620;;;;
2022/12/15 06:21:01;;;;;;;7.0;6.8;;;;;;;-6.5;100.0;100620;;;;
2022/12/15 06:22:00;;;;;;;7.0;6.8;;;;;;;-6.4;100.0;100620;;;;
2022/12/15 06:23:00;;;;;;;7.0;6.8;;;;;;;-6.4;100.0;100620;;;;
2022/12/15 06:24:01;;;;;;;7.0;6.8;;;;;;;-6.4;100.0;100620;;;;
2022/12/15 06:25:00;;;;;;;7.0;6.8;;;;;;;-6.4;100.0;100620;;;;
2022/12/15 06:26:10;;;;;;;7.0;6.8;;;;;;;-6.4;100.0;100620;;;;
2022/12/15 06:27:00;;;;;;;7.0;6.8;;;;;;;-6.4;100.0;100620;;;;
2022/12/15 06:28:02;;;;;;;7.0;6.8;;;;;;;-6.5;100.0;100620;;;;
2022/12/15 06:29:02;;;;;;;7.0;6.8;;;;;;;-6.5;100.0;100620;;;;
2022/12/15 06:30:00;;;;;;;7.0;6.8;;;;;;;-6.5;100.0;100630;;;;
2022/12/15 06:31:03;;;;;;;7.0;6.8;;;;;;;-6.5;100.0;100630;;;;
2022/12/15 06:32:00;;;;;;;7.0;6.8;;;;;;;-6.4;100.0;100630;;;;
2022/12/15 06:33:00;;;;;;;7.0;6.8;;;;;;;-6.4;100.0;100630;;;;
2022/12/15 06:34:02;;;;;;;7.0;6.8;;;;;;;-6.4;100.0;100620;;;;
2022/12/15 06:35:00;;;;;;;7.0;6.8;;;;;;;-6.4;100.0;100620;;;;
2022/12/15 06:36:02;;;;;;;6.3;6.1;;;;;;;-6.5;100.0;100620;;;;
2022/12/15 06:37:00;;;;;;;6.3;6.1;;;;;;;-6.5;100.0;100620;;;;
2022/12/15 06:38:00;;;;;;;6.3;6.1;;;;;;;-6.4;100.0;100620;;;;
2022/12/15 06:39:04;;;;;;;6.3;6.1;;;;;;;-6.4;100.0;100620;;;;
2022/12/15 06:40:00;;;;;;;6.3;6.1;;;;;;;-6.4;100.0;100610;;;;
2022/12/15 06:41:01;;;;;;;6.3;6.1;;;;;;;-6.4;100.0;100610;;;;
2022/12/15 06:42:00;;;;;;;6.3;6.1;;;;;;;-6.4;100.0;100620;;;;
2022/12/15 06:43:00;;;;;;;6.3;6.1;;;;;;;-6.4;100.0;100620;;;;
2022/12/15 06:44:00;;;;;;;6.3;6.1;;;;;;;-6.6;100.0;100620;;;;
2022/12/15 06:45:00;;;;;;;6.3;6.1;;;;;;;-6.6;100.0;100620;;;;
2022/12/15 06:46:01;;;;;;;6.3;6.1;;;;;;;-6.4;100.0;100620;;;;
2022/12/15 06:47:00;;;;;;;6.3;6.1;;;;;;;-6.4;100.0;100620;;;;
2022/12/15 06:48:02;;;;;;;6.3;6.1;;;;;;;-6.4;100.0;100620;;;;
2022/12/15 06:49:00;;;;;;;6.3;6.1;;;;;;;-6.4;100.0;100620;;;;
2022/12/15 06:50:00;;;;;;;6.3;6.1;;;;;;;-6.3;100.0;100620;;;;
2022/12/15 06:51:03;;;;;;;6.3;6.1;;;;;;;-6.3;100.0;100620;;;;
2022/12/15 06:52:00;;;;;;;6.3;6.1;;;;;;;-6.5;100.0;100620;;;;
2022/12/15 06:53:00;;;;;;;6.3;6.1;;;;;;;-6.5;100.0;100620;;;;
2022/12/15 06:54:00;;;;;;;6.3;6.1;;;;;;;-6.5;100.0;100620;;;;
2022/12/15 06:55:00;;;;;;;6.3;6.1;;;;;;;-6.5;100.0;100620;;;;
2022/12/15 06:56:01;;;;;;;6.6;6.4;;;;;;;-6.5;100.0;100620;;;;
2022/12/15 06:57:00;;;;;;;6.6;6.4;;;;;;;-6.5;100.0;100620;;;;
2022/12/15 06:58:00;;;;;;;6.6;6.4;;;;;;;-6.6;100.0;100630;;;;
2022/12/15 06:59:02;;;;;;;6.6;6.4;;;;;;;-6.6;100.0;100630;;;;
2022/12/15 07:00:00;;;;;;;6.6;6.4;;;;;;;-6.6;100.0;100630;;;;
2022/12/15 07:01:04;;;;;;;6.6;6.4;;;;;;;-6.6;100.0;100630;;;;
2022/12/15 07:02:00;;;;;;;6.6;6.4;;;;;;;-6.4;100.0;100630;;;;
2022/12/15 07:03:00;;;;;;;6.6;6.4;;;;;;;-6.4;100.0;100630;;;;
2022/12/15 07:04:03;;;;;;;6.6;6.4;;;;;;;-6.5;100.0;100630;;;;
2022/12/15 07:05:00;;;;;;;6.6;6.4;;;;;;;-6.5;100.0;100630;;;;
2022/12/15 07:06:01;;;;;;;6.6;6.4;;;;;;;-6.5;100.0;100630;;;;
2022/12/15 07:07:00;;;;;;;6.6;6.4;;;;;;;-6.5;100.0;100630;;;;
2022/12/15 07:08:00;;;;;;;6.6;6.4;;;;;;;-6.5;100.0;100630;;;;
2022/12/15 07:09:00;;;;;;;6.6;6.4;;;;;;;-6.5;100.0;100630;;;;
2022/12/15 07:10:00;;;;;;;6.6;6.4;;;;;;;-6.4;100.0;100630;;;;
2022/12/15 07:11:02;;;;;;;6.6;6.4;;;;;;;-6.4;100.0;100630;;;;
2022/12/15 07:12:00;;;;;;;6.6;6.4;;;;;;;-6.5;100.0;100630;;;;
2022/12/15 07:13:00;;;;;;;6.6;6.4;;;;;;;-6.5;100.0;100630;;;;
2022/12/15 07:14:00;;;;;;;6.6;6.4;;;;;;;-6.5;100.0;100630;;;;
2022/12/15 07:15:00;;;;;;;6.6;6.4;;;;;;;-6.5;100.0;100630;;;;
2022/12/15 07:16:01;;;;;;;7.9;7.4;;;;;;;-6.5;100.0;100640;;;;
2022/12/15 07:17:00;;;;;;;7.9;7.4;;;;;;;-6.5;100.0;100640;;;;
2022/12/15 07:18:00;;;;;;;7.9;7.4;;;;;;;-6.5;100.0;100630;;;;
2022/12/15 07:19:00;;;;;;;7.9;7.4;;;;;;;-6.5;100.0;100630;;;;
2022/12/15 07:20:00;;;;;;;7.9;7.4;;;;;;;-6.5;100.0;100640;;;;
2022/12/15 07:21:03;;;;;;;7.9;7.4;;;;;;;-6.5;100.0;100640;;;;
2022/12/15 07:22:00;;;;;;;7.9;7.4;;;;;;;-6.5;100.0;100640;;;;
2022/12/15 07:23:02;;;;;;;7.9;7.4;;;;;;;-6.5;100.0;100640;;;;
2022/12/15 07:24:02;;;;;;;7.9;7.4;;;;;;;-6.5;100.0;100640;;;;
2022/12/15 07:25:00;;;;;;;7.9;7.4;;;;;;;-6.5;100.0;100640;;;;
2022/12/15 07:26:11;;;;;;;7.9;7.4;;;;;;;-6.4;100.0;100640;;;;
2022/12/15 07:27:00;;;;;;;7.9;7.4;;;;;;;-6.4;100.0;100640;;;;
2022/12/15 07:28:00;;;;;;;7.9;7.4;;;;;;;-6.4;100.0;100650;;;;
2022/12/15 07:29:00;;;;;;;7.9;7.4;;;;;;;-6.4;100.0;100650;;;;
2022/12/15 07:30:00;;;;;;;7.9;7.4;;;;;;;-6.4;100.0;100650;;;;
2022/12/15 07:31:01;;;;;;;7.9;7.4;;;;;;;-6.4;100.0;100650;;;;
2022/12/15 07:32:00;;;;;;;7.9;7.4;;;;;;;-6.4;100.0;100650;;;;
2022/12/15 07:33:00;;;;;;;7.9;7.4;;;;;;;-6.4;100.0;100650;;;;
2022/12/15 07:34:00;;;;;;;7.9;7.4;;;;;;;-6.5;100.0;100650;;;;
2022/12/15 07:35:00;;;;;;;7.9;7.4;;;;;;;-6.5;100.0;100650;;;;
2022/12/15 07:36:00;;;;;;;7.2;7.0;;;;;;;-6.5;100.0;100650;;;;
2022/12/15 07:37:00;;;;;;;7.2;7.0;;;;;;;-6.5;100.0;100650;;;;
2022/12/15 07:38:00;;;;;;;7.2;7.0;;;;;;;-6.6;100.0;100650;;;;
2022/12/15 07:39:00;;;;;;;7.2;7.0;;;;;;;-6.6;100.0;100650;;;;
2022/12/15 07:40:00;;;;;;;7.2;7.0;;;;;;;-6.6;100.0;100650;;;;
2022/12/15 07:41:01;;;;;;;7.2;7.0;;;;;;;-6.6;100.0;100650;;;;
2022/12/15 07:42:00;;;;;;;7.2;7.0;;;;;;;-6.6;100.0;100640;;;;
2022/12/15 07:43:00;;;;;;;7.2;7.0;;;;;;;-6.6;100.0;100640;;;;
2022/12/15 07:44:01;;;;;;;7.2;7.0;;;;;;;-6.6;100.0;100650;;;;
2022/12/15 07:45:00;;;;;;;7.2;7.0;;;;;;;-6.6;100.0;100650;;;;
2022/12/15 07:46:00;;;;;;;7.2;7.0;;;;;;;-6.5;100.0;100650;;;;
2022/12/15 07:47:00;;;;;;;7.2;7.0;;;;;;;-6.5;100.0;100650;;;;
2022/12/15 07:48:00;;;;;;;7.2;7.0;;;;;;;-6.5;100.0;100660;;;;
2022/12/15 07:49:00;;;;;;;7.2;7.0;;;;;;;-6.5;100.0;100660;;;;
2022/12/15 07:50:00;;;;;;;7.2;7.0;;;;;;;-6.5;100.0;100660;;;;
2022/12/15 07:51:09;;;;;;;7.2;7.0;;;;;;;-6.5;100.0;100660;;;;
2022/12/15 07:52:00;;;;;;;7.2;7.0;;;;;;;-6.5;100.0;100660;;;;
2022/12/15 07:53:00;;;;;;;7.2;7.0;;;;;;;-6.5;100.0;100660;;;;
2022/12/15 07:54:00;;;;;;;7.2;7.0;;;;;;;-6.5;100.0;100660;;;;
2022/12/15 07:55:00;;;;;;;7.2;7.0;;;;;;;-6.5;100.0;100660;;;;
2022/12/15 07:56:08;;;;;;;6.7;6.5;;;;;;;-6.6;100.0;100660;;;;
2022/12/15 07:57:01;;;;;;;6.7;6.5;;;;;;;-6.6;100.0;100660;;;;
2022/12/15 07:58:00;;;;;;;6.7;6.5;;;;;;;-6.5;100.0;100660;;;;
2022/12/15 07:59:00;;;;;;;6.7;6.5;;;;;;;-6.5;100.0;100660;;;;
2022/12/15 08:00:00;;;;;;;6.7;6.5;;;;;;;-6.5;100.0;100660;;;;
2022/12/15 08:01:01;;;;;;;6.7;6.5;;;;;;;-6.5;100.0;100660;;;;
2022/12/15 08:02:02;;;;;;;6.7;6.5;;;;;;;-6.5;100.0;100660;;;;
2022/12/15 08:03:01;;;;;;;6.7;6.5;;;;;;;-6.5;100.0;100670;;;;
2022/12/15 08:04:00;;;;;;;6.7;6.5;;;;;;;-6.4;100.0;100670;;;;
2022/12/15 08:05:00;;;;;;;6.7;6.5;;;;;;;-6.4;100.0;100670;;;;
2022/12/15 08:06:04;;;;;;;6.7;6.5;;;;;;;-6.5;100.0;100670;;;;
2022/12/15 08:07:00;;;;;;;6.7;6.5;;;;;;;-6.5;100.0;100670;;;;
2022/12/15 08:08:00;;;;;;;6.7;6.5;;;;;;;-6.2;100.0;100670;;;;
2022/12/15 08:09:00;;;;;;;6.7;6.5;;;;;;;-6.2;100.0;100670;;;;
2022/12/15 08:10:00;;;;;;;6.7;6.5;;;;;;;-6.5;100.0;100670;;;;
2022/12/15 08:11:04;;;;;;;6.7;6.5;;;;;;;-6.5;100.0;100670;;;;
2022/12/15 08:12:00;;;;;;;6.7;6.5;;;;;;;-6.4;100.0;100670;;;;
2022/12/15 08:13:00;;;;;;;6.7;6.5;;;;;;;-6.4;100.0;100670;;;;
2022/12/15 08:14:05;;;;;;;6.7;6.5;;;;;;;-6.4;100.0;100680;;;;
2022/12/15 08:15:00;;;;;;;6.7;6.5;;;;;;;-6.4;100.0;100680;;;;
2022/12/15 08:16:00;;;;;;;6.4;6.2;;;;;;;-6.4;100.0;100680;;;;
2022/12/15 08:17:00;;;;;;;6.4;6.2;;;;;;;-6.3;100.0;100680;;;;
2022/12/15 08:18:00;;;;;;;6.4;6.2;;;;;;;-6.3;100.0;100680;;;;
2022/12/15 08:19:00;;;;;;;6.4;6.2;;;;;;;-6.3;100.0;100680;;;;
2022/12/15 08:20:08;;;;;;;6.4;6.2;;;;;;;-6.3;100.0;100680;;;;
2022/12/15 08:21:02;;;;;;;6.4;6.2;;;;;;;-6.3;100.0;100680;;;;
2022/12/15 08:22:00;;;;;;;6.4;6.2;;;;;;;-6.4;100.0;100680;;;;
2022/12/15 08:23:00;;;;;;;6.4;6.2;;;;;;;-6.4;100.0;100680;;;;
2022/12/15 08:24:01;;;;;;;6.4;6.2;;;;;;;-6.3;100.0;100680;;;;
2022/12/15 08:25:00;;;;;;;6.4;6.2;;;;;;;-6.3;100.0;100680;;;;
2022/12/15 08:26:02;;;;;;;6.4;6.2;;;;;;;-6.4;100.0;100680;;;;
2022/12/15 08:27:00;;;;;;;6.4;6.2;;;;;;;-6.4;100.0;100680;;;;
2022/12/15 08:28:00;;;;;;;6.4;6.2;;;;;;;-6.4;100.0;100690;;;;
2022/12/15 08:29:12;;;;;;;6.4;6.2;;;;;;;-6.4;100.0;100690;;;;
2022/12/15 08:30:00;;;;;;;6.4;6.2;;;;;;;-6.3;100.0;100690;;;;
2022/12/15 08:31:02;;;;;;;6.4;6.2;;;;;;;-6.3;100.0;100690;;;;
2022/12/15 08:32:00;;;;;;;6.4;6.2;;;;;;;-6.3;100.0;100690;;;;
2022/12/15 08:33:00;;;;;;;6.4;6.2;;;;;;;-6.3;100.0;100690;;;;
2022/12/15 08:34:00;;;;;;;6.4;6.2;;;;;;;-6.3;100.0;100690;;;;
2022/12/15 08:35:00;;;;;;;6.7;6.5;;;;;;;-6.3;100.0;100690;;;;
2022/12/15 08:36:01;;;;;;;6.7;6.5;;;;;;;-6.3;100.0;100690;;;;
2022/12/15 08:37:00;;;;;;;6.7;6.5;;;;;;;-6.3;100.0;100690;;;;
2022/12/15 08:38:05;;;;;;;6.7;6.5;;;;;;;-6.3;100.0;100690;;;;
2022/12/15 08:39:00;;;;;;;6.7;6.5;;;;;;;-6.3;100.0;100690;;;;
2022/12/15 08:43:00;;;;;;;6.7;6.5;;;;;;;-6.3;100.0;100690;;;;
2022/12/15 08:44:01;;;;;;;6.7;6.5;;;;;;;-6.3;100.0;100690;;;;
2022/12/15 08:45:00;;;;;;;6.7;6.5;;;;;;;-6.3;100.0;100690;;;;
2022/12/15 08:46:00;;;;;;;6.7;6.5;;;;;;;-6.3;100.0;100690;;;;
2022/12/15 08:47:00;;;;;;;6.7;6.5;;;;;;;-6.3;100.0;100690;;;;